sensor_id;sensor_type;location;lat;lon;timestamp;P1;durP1;ratioP1;P2;durP2;ratioP2
5900;SDS011;2976;49.764;9.796;2023-02-22T00:01:09;39.97;;;19.07;;
5900;SDS011;2976;49.764;9.796;2023-02-22T00:03:49;33.03;;;18.77;;
5900;SDS011;2976;49.764;9.796;2023-02-22T00:06:16;38.47;;;21.30;;
5900;SDS011;2976;49.764;9.796;2023-02-22T00:08:48;40.70;;;22.57;;
5900;SDS011;2976;49.764;9.796;2023-02-22T00:11:16;44.33;;;21.07;;
5900;SDS011;2976;49.764;9.796;2023-02-22T00:13:42;42.87;;;23.00;;
5900;SDS011;2976;49.764;9.796;2023-02-22T00:16:09;53.00;;;26.20;;
5900;SDS011;2976;49.764;9.796;2023-02-22T00:18:38;40.40;;;23.10;;
5900;SDS011;2976;49.764;9.796;2023-02-22T00:21:04;46.17;;;22.97;;
5900;SDS011;2976;49.764;9.796;2023-02-22T00:23:34;55.43;;;25.20;;
5900;SDS011;2976;49.764;9.796;2023-02-22T00:26:03;45.73;;;23.80;;
5900;SDS011;2976;49.764;9.796;2023-02-22T00:28:33;38.77;;;21.70;;
5900;SDS011;2976;49.764;9.796;2023-02-22T00:31:03;36.13;;;21.60;;
5900;SDS011;2976;49.764;9.796;2023-02-22T00:33:30;29.63;;;18.27;;
5900;SDS011;2976;49.764;9.796;2023-02-22T00:35:56;31.43;;;18.97;;
5900;SDS011;2976;49.764;9.796;2023-02-22T00:38:22;35.03;;;19.17;;
5900;SDS011;2976;49.764;9.796;2023-02-22T00:40:47;34.87;;;19.50;;
5900;SDS011;2976;49.764;9.796;2023-02-22T00:43:13;52.00;;;19.80;;
5900;SDS011;2976;49.764;9.796;2023-02-22T00:45:39;40.20;;;19.90;;
5900;SDS011;2976;49.764;9.796;2023-02-22T00:48:05;46.17;;;23.83;;
5900;SDS011;2976;49.764;9.796;2023-02-22T00:50:31;42.80;;;21.30;;
5900;SDS011;2976;49.764;9.796;2023-02-22T00:52:58;51.20;;;24.43;;
5900;SDS011;2976;49.764;9.796;2023-02-22T00:55:26;52.70;;;23.50;;
5900;SDS011;2976;49.764;9.796;2023-02-22T00:57:53;43.83;;;21.53;;
5900;SDS011;2976;49.764;9.796;2023-02-22T01:00:21;40.20;;;21.10;;
5900;SDS011;2976;49.764;9.796;2023-02-22T01:02:47;45.23;;;22.00;;
5900;SDS011;2976;49.764;9.796;2023-02-22T01:05:15;46.50;;;23.50;;
5900;SDS011;2976;49.764;9.796;2023-02-22T01:07:47;49.70;;;24.27;;
5900;SDS011;2976;49.764;9.796;2023-02-22T01:10:13;46.40;;;23.70;;
5900;SDS011;2976;49.764;9.796;2023-02-22T01:12:40;105.17;;;25.70;;
5900;SDS011;2976;49.764;9.796;2023-02-22T01:15:06;86.87;;;23.60;;
5900;SDS011;2976;49.764;9.796;2023-02-22T01:17:36;60.47;;;25.23;;
5900;SDS011;2976;49.764;9.796;2023-02-22T01:20:04;58.50;;;28.00;;
5900;SDS011;2976;49.764;9.796;2023-02-22T01:22:36;50.13;;;23.77;;
5900;SDS011;2976;49.764;9.796;2023-02-22T01:25:06;116.20;;;29.23;;
5900;SDS011;2976;49.764;9.796;2023-02-22T01:27:33;131.00;;;30.90;;
5900;SDS011;2976;49.764;9.796;2023-02-22T01:29:59;174.57;;;32.33;;
5900;SDS011;2976;49.764;9.796;2023-02-22T01:32:26;181.83;;;30.70;;
5900;SDS011;2976;49.764;9.796;2023-02-22T01:34:52;324.93;;;35.00;;
5900;SDS011;2976;49.764;9.796;2023-02-22T01:37:17;126.17;;;22.23;;
5900;SDS011;2976;49.764;9.796;2023-02-22T01:39:43;113.37;;;25.30;;
5900;SDS011;2976;49.764;9.796;2023-02-22T01:42:08;108.53;;;24.30;;
5900;SDS011;2976;49.764;9.796;2023-02-22T01:44:35;154.77;;;27.20;;
5900;SDS011;2976;49.764;9.796;2023-02-22T01:47:03;227.03;;;34.30;;
5900;SDS011;2976;49.764;9.796;2023-02-22T01:52:05;66.67;;;26.30;;
5900;SDS011;2976;49.764;9.796;2023-02-22T01:54:40;73.27;;;26.60;;
5900;SDS011;2976;49.764;9.796;2023-02-22T01:59:45;50.37;;;23.60;;
5900;SDS011;2976;49.764;9.796;2023-02-22T02:02:14;44.40;;;22.27;;
5900;SDS011;2976;49.764;9.796;2023-02-22T02:04:40;54.30;;;22.50;;
5900;SDS011;2976;49.764;9.796;2023-02-22T02:07:06;60.30;;;22.13;;
5900;SDS011;2976;49.764;9.796;2023-02-22T02:09:39;59.53;;;23.13;;
5900;SDS011;2976;49.764;9.796;2023-02-22T02:12:14;51.07;;;21.13;;
5900;SDS011;2976;49.764;9.796;2023-02-22T02:14:42;54.80;;;20.93;;
5900;SDS011;2976;49.764;9.796;2023-02-22T02:17:09;43.50;;;21.70;;
5900;SDS011;2976;49.764;9.796;2023-02-22T02:19:41;42.20;;;20.90;;
5900;SDS011;2976;49.764;9.796;2023-02-22T02:22:18;51.30;;;21.67;;
5900;SDS011;2976;49.764;9.796;2023-02-22T02:31:15;75.23;;;19.30;;
5900;SDS011;2976;49.764;9.796;2023-02-22T02:34:00;54.23;;;20.37;;
5900;SDS011;2976;49.764;9.796;2023-02-22T02:42:24;45.67;;;21.00;;
5900;SDS011;2976;49.764;9.796;2023-02-22T02:45:11;111.83;;;25.83;;
5900;SDS011;2976;49.764;9.796;2023-02-22T02:47:43;66.77;;;22.37;;
5900;SDS011;2976;49.764;9.796;2023-02-22T02:50:15;55.57;;;20.43;;
5900;SDS011;2976;49.764;9.796;2023-02-22T02:52:45;110.57;;;22.90;;
5900;SDS011;2976;49.764;9.796;2023-02-22T02:55:13;114.17;;;23.37;;
5900;SDS011;2976;49.764;9.796;2023-02-22T02:57:38;120.03;;;25.63;;
5900;SDS011;2976;49.764;9.796;2023-02-22T03:00:05;100.40;;;22.97;;
5900;SDS011;2976;49.764;9.796;2023-02-22T03:09:38;89.37;;;21.93;;
5900;SDS011;2976;49.764;9.796;2023-02-22T03:12:37;125.00;;;23.10;;
5900;SDS011;2976;49.764;9.796;2023-02-22T03:17:53;102.33;;;21.30;;
5900;SDS011;2976;49.764;9.796;2023-02-22T03:23:21;73.80;;;20.50;;
5900;SDS011;2976;49.764;9.796;2023-02-22T03:25:54;66.10;;;15.87;;
5900;SDS011;2976;49.764;9.796;2023-02-22T03:28:26;43.40;;;13.67;;
5900;SDS011;2976;49.764;9.796;2023-02-22T03:30:56;39.53;;;14.10;;
5900;SDS011;2976;49.764;9.796;2023-02-22T03:33:26;42.80;;;16.50;;
5900;SDS011;2976;49.764;9.796;2023-02-22T03:35:59;49.27;;;16.10;;
5900;SDS011;2976;49.764;9.796;2023-02-22T03:38:50;41.33;;;15.93;;
5900;SDS011;2976;49.764;9.796;2023-02-22T03:41:20;58.27;;;17.53;;
5900;SDS011;2976;49.764;9.796;2023-02-22T03:44:10;39.57;;;15.73;;
5900;SDS011;2976;49.764;9.796;2023-02-22T03:46:39;54.63;;;16.93;;
5900;SDS011;2976;49.764;9.796;2023-02-22T03:52:02;40.30;;;14.57;;
5900;SDS011;2976;49.764;9.796;2023-02-22T03:54:28;29.20;;;14.27;;
5900;SDS011;2976;49.764;9.796;2023-02-22T03:56:55;59.87;;;16.97;;
5900;SDS011;2976;49.764;9.796;2023-02-22T03:59:29;34.10;;;17.00;;
5900;SDS011;2976;49.764;9.796;2023-02-22T04:01:55;51.07;;;15.37;;
5900;SDS011;2976;49.764;9.796;2023-02-22T04:04:21;39.83;;;16.37;;
5900;SDS011;2976;49.764;9.796;2023-02-22T04:06:48;39.23;;;17.33;;
5900;SDS011;2976;49.764;9.796;2023-02-22T04:09:14;40.00;;;16.83;;
5900;SDS011;2976;49.764;9.796;2023-02-22T04:11:40;28.03;;;13.37;;
5900;SDS011;2976;49.764;9.796;2023-02-22T04:14:06;45.67;;;13.60;;
5900;SDS011;2976;49.764;9.796;2023-02-22T04:16:32;27.63;;;15.57;;
5900;SDS011;2976;49.764;9.796;2023-02-22T04:18:58;32.60;;;14.60;;
5900;SDS011;2976;49.764;9.796;2023-02-22T04:21:23;30.93;;;14.30;;
5900;SDS011;2976;49.764;9.796;2023-02-22T04:23:49;28.97;;;13.07;;
5900;SDS011;2976;49.764;9.796;2023-02-22T04:26:15;32.10;;;15.60;;
5900;SDS011;2976;49.764;9.796;2023-02-22T04:28:40;29.00;;;14.70;;
5900;SDS011;2976;49.764;9.796;2023-02-22T04:31:06;46.73;;;16.27;;
5900;SDS011;2976;49.764;9.796;2023-02-22T04:33:32;41.83;;;16.00;;
5900;SDS011;2976;49.764;9.796;2023-02-22T04:35:57;62.37;;;16.17;;
5900;SDS011;2976;49.764;9.796;2023-02-22T04:38:23;58.80;;;19.70;;
5900;SDS011;2976;49.764;9.796;2023-02-22T04:40:50;69.97;;;19.17;;
5900;SDS011;2976;49.764;9.796;2023-02-22T04:43:16;86.40;;;18.03;;
5900;SDS011;2976;49.764;9.796;2023-02-22T04:45:42;53.87;;;19.50;;
5900;SDS011;2976;49.764;9.796;2023-02-22T04:48:07;71.47;;;20.40;;
5900;SDS011;2976;49.764;9.796;2023-02-22T04:50:33;35.73;;;15.30;;
5900;SDS011;2976;49.764;9.796;2023-02-22T04:52:59;34.70;;;15.30;;
5900;SDS011;2976;49.764;9.796;2023-02-22T04:55:24;77.30;;;15.60;;
5900;SDS011;2976;49.764;9.796;2023-02-22T04:57:52;48.07;;;15.90;;
5900;SDS011;2976;49.764;9.796;2023-02-22T05:00:18;48.27;;;15.40;;
5900;SDS011;2976;49.764;9.796;2023-02-22T05:02:45;36.07;;;16.03;;
5900;SDS011;2976;49.764;9.796;2023-02-22T05:05:13;57.97;;;14.20;;
5900;SDS011;2976;49.764;9.796;2023-02-22T05:07:40;71.30;;;15.40;;
5900;SDS011;2976;49.764;9.796;2023-02-22T05:10:05;40.07;;;14.47;;
5900;SDS011;2976;49.764;9.796;2023-02-22T05:12:31;40.87;;;15.40;;
5900;SDS011;2976;49.764;9.796;2023-02-22T05:14:56;50.80;;;15.87;;
5900;SDS011;2976;49.764;9.796;2023-02-22T05:17:22;66.70;;;17.70;;
5900;SDS011;2976;49.764;9.796;2023-02-22T05:19:47;78.10;;;16.37;;
5900;SDS011;2976;49.764;9.796;2023-02-22T05:22:13;46.67;;;15.50;;
5900;SDS011;2976;49.764;9.796;2023-02-22T05:24:39;46.03;;;16.20;;
5900;SDS011;2976;49.764;9.796;2023-02-22T05:27:04;73.60;;;17.20;;
5900;SDS011;2976;49.764;9.796;2023-02-22T05:29:30;64.03;;;16.20;;
5900;SDS011;2976;49.764;9.796;2023-02-22T05:31:55;35.53;;;15.77;;
5900;SDS011;2976;49.764;9.796;2023-02-22T05:34:22;61.00;;;17.57;;
5900;SDS011;2976;49.764;9.796;2023-02-22T05:36:48;87.07;;;17.80;;
5900;SDS011;2976;49.764;9.796;2023-02-22T05:39:14;102.20;;;18.97;;
5900;SDS011;2976;49.764;9.796;2023-02-22T05:41:40;95.87;;;20.23;;
5900;SDS011;2976;49.764;9.796;2023-02-22T05:44:05;98.90;;;19.00;;
5900;SDS011;2976;49.764;9.796;2023-02-22T05:46:31;90.10;;;18.70;;
5900;SDS011;2976;49.764;9.796;2023-02-22T05:48:56;91.43;;;19.03;;
5900;SDS011;2976;49.764;9.796;2023-02-22T05:51:22;70.63;;;18.70;;
5900;SDS011;2976;49.764;9.796;2023-02-22T05:53:47;112.73;;;18.93;;
5900;SDS011;2976;49.764;9.796;2023-02-22T05:56:19;116.50;;;18.87;;
5900;SDS011;2976;49.764;9.796;2023-02-22T05:58:48;89.03;;;16.50;;
5900;SDS011;2976;49.764;9.796;2023-02-22T06:01:14;87.37;;;17.67;;
5900;SDS011;2976;49.764;9.796;2023-02-22T06:03:39;83.60;;;18.10;;
5900;SDS011;2976;49.764;9.796;2023-02-22T06:06:05;128.57;;;16.73;;
5900;SDS011;2976;49.764;9.796;2023-02-22T06:08:30;138.73;;;14.37;;
5900;SDS011;2976;49.764;9.796;2023-02-22T06:10:56;73.43;;;14.40;;
5900;SDS011;2976;49.764;9.796;2023-02-22T06:13:21;123.97;;;17.13;;
5900;SDS011;2976;49.764;9.796;2023-02-22T06:15:47;65.90;;;14.80;;
5900;SDS011;2976;49.764;9.796;2023-02-22T06:18:12;31.83;;;11.80;;
5900;SDS011;2976;49.764;9.796;2023-02-22T06:20:38;109.73;;;16.00;;
5900;SDS011;2976;49.764;9.796;2023-02-22T06:23:03;70.57;;;15.83;;
5900;SDS011;2976;49.764;9.796;2023-02-22T06:25:29;89.17;;;14.93;;
5900;SDS011;2976;49.764;9.796;2023-02-22T06:27:56;77.20;;;14.60;;
5900;SDS011;2976;49.764;9.796;2023-02-22T06:30:23;79.67;;;16.07;;
5900;SDS011;2976;49.764;9.796;2023-02-22T06:32:49;192.33;;;20.70;;
5900;SDS011;2976;49.764;9.796;2023-02-22T06:35:15;41.17;;;14.00;;
5900;SDS011;2976;49.764;9.796;2023-02-22T06:37:41;107.43;;;16.47;;
5900;SDS011;2976;49.764;9.796;2023-02-22T06:40:07;46.03;;;14.87;;
5900;SDS011;2976;49.764;9.796;2023-02-22T06:42:32;136.03;;;17.53;;
5900;SDS011;2976;49.764;9.796;2023-02-22T06:44:58;111.67;;;17.17;;
5900;SDS011;2976;49.764;9.796;2023-02-22T06:47:24;88.53;;;15.90;;
5900;SDS011;2976;49.764;9.796;2023-02-22T06:49:53;60.47;;;14.93;;
5900;SDS011;2976;49.764;9.796;2023-02-22T06:52:20;98.27;;;16.23;;
5900;SDS011;2976;49.764;9.796;2023-02-22T06:54:46;100.10;;;16.13;;
5900;SDS011;2976;49.764;9.796;2023-02-22T06:57:12;68.50;;;14.00;;
5900;SDS011;2976;49.764;9.796;2023-02-22T06:59:38;60.40;;;12.80;;
5900;SDS011;2976;49.764;9.796;2023-02-22T07:02:03;36.10;;;13.00;;
5900;SDS011;2976;49.764;9.796;2023-02-22T07:04:29;61.93;;;13.17;;
5900;SDS011;2976;49.764;9.796;2023-02-22T07:06:55;89.37;;;15.90;;
5900;SDS011;2976;49.764;9.796;2023-02-22T07:09:20;96.27;;;16.60;;
5900;SDS011;2976;49.764;9.796;2023-02-22T07:11:46;52.57;;;14.03;;
5900;SDS011;2976;49.764;9.796;2023-02-22T07:14:11;74.90;;;15.00;;
5900;SDS011;2976;49.764;9.796;2023-02-22T07:16:37;52.60;;;14.37;;
5900;SDS011;2976;49.764;9.796;2023-02-22T07:19:02;46.33;;;14.80;;
5900;SDS011;2976;49.764;9.796;2023-02-22T07:21:28;22.63;;;12.83;;
5900;SDS011;2976;49.764;9.796;2023-02-22T07:23:55;58.90;;;12.27;;
5900;SDS011;2976;49.764;9.796;2023-02-22T07:26:22;58.87;;;12.60;;
5900;SDS011;2976;49.764;9.796;2023-02-22T07:28:48;50.43;;;12.30;;
5900;SDS011;2976;49.764;9.796;2023-02-22T07:31:14;52.43;;;12.30;;
5900;SDS011;2976;49.764;9.796;2023-02-22T07:33:40;60.50;;;14.83;;
5900;SDS011;2976;49.764;9.796;2023-02-22T07:36:06;66.70;;;13.00;;
5900;SDS011;2976;49.764;9.796;2023-02-22T07:38:32;47.53;;;13.07;;
5900;SDS011;2976;49.764;9.796;2023-02-22T07:40:57;42.50;;;12.20;;
5900;SDS011;2976;49.764;9.796;2023-02-22T07:43:24;77.13;;;12.80;;
5900;SDS011;2976;49.764;9.796;2023-02-22T07:45:52;63.60;;;12.13;;
5900;SDS011;2976;49.764;9.796;2023-02-22T07:48:19;60.20;;;13.77;;
5900;SDS011;2976;49.764;9.796;2023-02-22T07:50:46;48.53;;;12.27;;
5900;SDS011;2976;49.764;9.796;2023-02-22T07:53:17;38.63;;;12.57;;
5900;SDS011;2976;49.764;9.796;2023-02-22T07:55:47;54.60;;;12.00;;
5900;SDS011;2976;49.764;9.796;2023-02-22T07:58:15;35.40;;;11.67;;
5900;SDS011;2976;49.764;9.796;2023-02-22T08:00:42;28.50;;;12.30;;
5900;SDS011;2976;49.764;9.796;2023-02-22T08:03:09;30.53;;;12.50;;
5900;SDS011;2976;49.764;9.796;2023-02-22T08:05:37;39.37;;;11.20;;
5900;SDS011;2976;49.764;9.796;2023-02-22T08:08:05;21.90;;;10.03;;
5900;SDS011;2976;49.764;9.796;2023-02-22T08:10:31;42.63;;;11.33;;
5900;SDS011;2976;49.764;9.796;2023-02-22T08:12:58;29.23;;;11.60;;
5900;SDS011;2976;49.764;9.796;2023-02-22T08:17:58;70.17;;;12.50;;
5900;SDS011;2976;49.764;9.796;2023-02-22T08:20:25;50.30;;;11.20;;
5900;SDS011;2976;49.764;9.796;2023-02-22T08:22:51;23.03;;;9.90;;
5900;SDS011;2976;49.764;9.796;2023-02-22T08:25:18;71.23;;;12.57;;
5900;SDS011;2976;49.764;9.796;2023-02-22T08:27:45;58.30;;;11.80;;
5900;SDS011;2976;49.764;9.796;2023-02-22T08:30:17;35.33;;;11.70;;
5900;SDS011;2976;49.764;9.796;2023-02-22T08:32:45;83.07;;;12.37;;
5900;SDS011;2976;49.764;9.796;2023-02-22T08:35:11;127.93;;;13.53;;
5900;SDS011;2976;49.764;9.796;2023-02-22T08:37:44;132.53;;;13.57;;
5900;SDS011;2976;49.764;9.796;2023-02-22T08:40:11;17.73;;;10.30;;
5900;SDS011;2976;49.764;9.796;2023-02-22T08:42:38;67.33;;;12.13;;
5900;SDS011;2976;49.764;9.796;2023-02-22T08:45:03;57.97;;;11.80;;
5900;SDS011;2976;49.764;9.796;2023-02-22T08:47:29;38.30;;;11.27;;
5900;SDS011;2976;49.764;9.796;2023-02-22T08:49:55;20.77;;;10.43;;
5900;SDS011;2976;49.764;9.796;2023-02-22T08:52:20;31.07;;;11.23;;
5900;SDS011;2976;49.764;9.796;2023-02-22T08:54:46;44.17;;;12.20;;
5900;SDS011;2976;49.764;9.796;2023-02-22T08:57:12;21.33;;;12.77;;
5900;SDS011;2976;49.764;9.796;2023-02-22T08:59:38;16.50;;;11.53;;
5900;SDS011;2976;49.764;9.796;2023-02-22T09:02:04;21.10;;;10.73;;
5900;SDS011;2976;49.764;9.796;2023-02-22T09:04:30;16.37;;;10.80;;
5900;SDS011;2976;49.764;9.796;2023-02-22T09:06:55;22.60;;;12.70;;
5900;SDS011;2976;49.764;9.796;2023-02-22T09:09:21;17.60;;;11.60;;
5900;SDS011;2976;49.764;9.796;2023-02-22T09:11:47;69.50;;;13.00;;
5900;SDS011;2976;49.764;9.796;2023-02-22T09:14:13;79.80;;;10.73;;
5900;SDS011;2976;49.764;9.796;2023-02-22T09:16:40;19.20;;;9.60;;
5900;SDS011;2976;49.764;9.796;2023-02-22T09:19:06;32.33;;;9.80;;
5900;SDS011;2976;49.764;9.796;2023-02-22T09:21:32;13.43;;;9.80;;
5900;SDS011;2976;49.764;9.796;2023-02-22T09:23:57;15.67;;;11.13;;
5900;SDS011;2976;49.764;9.796;2023-02-22T09:26:25;17.90;;;12.80;;
5900;SDS011;2976;49.764;9.796;2023-02-22T09:28:51;10.73;;;8.70;;
5900;SDS011;2976;49.764;9.796;2023-02-22T09:31:17;10.93;;;9.30;;
5900;SDS011;2976;49.764;9.796;2023-02-22T09:33:42;11.37;;;9.17;;
5900;SDS011;2976;49.764;9.796;2023-02-22T09:36:09;8.93;;;8.03;;
5900;SDS011;2976;49.764;9.796;2023-02-22T09:38:34;10.10;;;6.77;;
5900;SDS011;2976;49.764;9.796;2023-02-22T09:43:40;32.67;;;10.07;;
5900;SDS011;2976;49.764;9.796;2023-02-22T09:46:36;44.27;;;10.93;;
5900;SDS011;2976;49.764;9.796;2023-02-22T09:49:08;22.47;;;7.63;;
5900;SDS011;2976;49.764;9.796;2023-02-22T09:51:51;20.43;;;9.30;;
5900;SDS011;2976;49.764;9.796;2023-02-22T09:54:20;28.10;;;7.80;;
5900;SDS011;2976;49.764;9.796;2023-02-22T09:56:58;53.93;;;9.30;;
5900;SDS011;2976;49.764;9.796;2023-02-22T09:59:28;14.73;;;8.37;;
5900;SDS011;2976;49.764;9.796;2023-02-22T10:02:01;38.50;;;10.00;;
5900;SDS011;2976;49.764;9.796;2023-02-22T10:07:52;38.50;;;11.27;;
5900;SDS011;2976;49.764;9.796;2023-02-22T10:10:21;40.83;;;11.33;;
5900;SDS011;2976;49.764;9.796;2023-02-22T10:15:19;19.63;;;9.73;;
5900;SDS011;2976;49.764;9.796;2023-02-22T10:18:20;16.43;;;9.20;;
5900;SDS011;2976;49.764;9.796;2023-02-22T10:24:12;29.70;;;10.10;;
5900;SDS011;2976;49.764;9.796;2023-02-22T10:26:48;22.27;;;9.67;;
5900;SDS011;2976;49.764;9.796;2023-02-22T10:31:58;13.53;;;9.67;;
5900;SDS011;2976;49.764;9.796;2023-02-22T10:34:29;12.93;;;9.30;;
5900;SDS011;2976;49.764;9.796;2023-02-22T10:37:42;12.90;;;10.57;;
5900;SDS011;2976;49.764;9.796;2023-02-22T10:39:52;13.70;;;9.53;;
5900;SDS011;2976;49.764;9.796;2023-02-22T10:42:24;20.43;;;10.83;;
5900;SDS011;2976;49.764;9.796;2023-02-22T10:44:51;13.20;;;10.30;;
5900;SDS011;2976;49.764;9.796;2023-02-22T10:47:17;11.90;;;9.47;;
5900;SDS011;2976;49.764;9.796;2023-02-22T10:49:49;32.07;;;11.77;;
5900;SDS011;2976;49.764;9.796;2023-02-22T10:52:28;12.33;;;9.63;;
5900;SDS011;2976;49.764;9.796;2023-02-22T10:54:58;14.43;;;9.90;;
5900;SDS011;2976;49.764;9.796;2023-02-22T10:57:28;16.33;;;9.40;;
5900;SDS011;2976;49.764;9.796;2023-02-22T10:59:56;13.50;;;9.30;;
5900;SDS011;2976;49.764;9.796;2023-02-22T11:02:32;13.17;;;10.20;;
5900;SDS011;2976;49.764;9.796;2023-02-22T11:05:00;13.40;;;8.60;;
5900;SDS011;2976;49.764;9.796;2023-02-22T11:09:56;12.17;;;9.57;;
5900;SDS011;2976;49.764;9.796;2023-02-22T11:12:31;12.83;;;9.37;;
5900;SDS011;2976;49.764;9.796;2023-02-22T11:17:41;10.57;;;8.70;;
5900;SDS011;2976;49.764;9.796;2023-02-22T11:22:52;8.80;;;7.83;;
5900;SDS011;2976;49.764;9.796;2023-02-22T11:25:26;9.07;;;7.73;;
5900;SDS011;2976;49.764;9.796;2023-02-22T11:27:55;7.77;;;6.93;;
5900;SDS011;2976;49.764;9.796;2023-02-22T11:30:35;9.20;;;7.47;;
5900;SDS011;2976;49.764;9.796;2023-02-22T11:35:51;12.90;;;9.00;;
5900;SDS011;2976;49.764;9.796;2023-02-22T11:38:19;11.10;;;8.10;;
5900;SDS011;2976;49.764;9.796;2023-02-22T11:43:39;8.70;;;7.73;;
5900;SDS011;2976;49.764;9.796;2023-02-22T11:46:06;12.17;;;8.80;;
5900;SDS011;2976;49.764;9.796;2023-02-22T11:48:41;9.50;;;7.30;;
5900;SDS011;2976;49.764;9.796;2023-02-22T11:54:07;9.50;;;8.03;;
5900;SDS011;2976;49.764;9.796;2023-02-22T11:56:56;12.53;;;8.13;;
5900;SDS011;2976;49.764;9.796;2023-02-22T12:02:30;14.03;;;9.17;;
5900;SDS011;2976;49.764;9.796;2023-02-22T12:13:52;12.07;;;7.27;;
5900;SDS011;2976;49.764;9.796;2023-02-22T12:16:23;12.63;;;7.77;;
5900;SDS011;2976;49.764;9.796;2023-02-22T12:21:43;9.70;;;7.23;;
5900;SDS011;2976;49.764;9.796;2023-02-22T12:24:15;11.20;;;7.80;;
5900;SDS011;2976;49.764;9.796;2023-02-22T12:26:52;12.03;;;8.00;;
5900;SDS011;2976;49.764;9.796;2023-02-22T12:31:51;11.27;;;9.10;;
5900;SDS011;2976;49.764;9.796;2023-02-22T12:34:30;12.30;;;8.80;;
5900;SDS011;2976;49.764;9.796;2023-02-22T12:39:45;12.30;;;8.17;;
5900;SDS011;2976;49.764;9.796;2023-02-22T12:42:21;11.40;;;8.10;;
5900;SDS011;2976;49.764;9.796;2023-02-22T12:44:55;14.10;;;8.10;;
5900;SDS011;2976;49.764;9.796;2023-02-22T12:47:28;17.90;;;8.37;;
5900;SDS011;2976;49.764;9.796;2023-02-22T12:50:02;14.57;;;8.97;;
5900;SDS011;2976;49.764;9.796;2023-02-22T12:52:50;12.53;;;8.40;;
5900;SDS011;2976;49.764;9.796;2023-02-22T12:55:22;12.80;;;8.63;;
5900;SDS011;2976;49.764;9.796;2023-02-22T12:57:58;12.83;;;8.27;;
5900;SDS011;2976;49.764;9.796;2023-02-22T13:06:35;13.53;;;8.93;;
5900;SDS011;2976;49.764;9.796;2023-02-22T13:17:22;10.17;;;7.00;;
5900;SDS011;2976;49.764;9.796;2023-02-22T13:22:41;9.10;;;7.40;;
5900;SDS011;2976;49.764;9.796;2023-02-22T13:30:38;10.27;;;7.67;;
5900;SDS011;2976;49.764;9.796;2023-02-22T13:33:13;12.20;;;9.20;;
5900;SDS011;2976;49.764;9.796;2023-02-22T13:36:13;13.20;;;8.50;;
5900;SDS011;2976;49.764;9.796;2023-02-22T13:49:46;11.13;;;8.10;;
5900;SDS011;2976;49.764;9.796;2023-02-22T13:52:20;12.80;;;7.30;;
5900;SDS011;2976;49.764;9.796;2023-02-22T13:54:52;9.93;;;7.07;;
5900;SDS011;2976;49.764;9.796;2023-02-22T14:02:58;14.10;;;8.37;;
5900;SDS011;2976;49.764;9.796;2023-02-22T14:05:45;11.57;;;5.97;;
5900;SDS011;2976;49.764;9.796;2023-02-22T14:11:02;10.93;;;7.77;;
5900;SDS011;2976;49.764;9.796;2023-02-22T14:16:25;11.80;;;7.40;;
5900;SDS011;2976;49.764;9.796;2023-02-22T14:19:10;9.63;;;7.03;;
5900;SDS011;2976;49.764;9.796;2023-02-22T14:21:57;9.30;;;7.30;;
5900;SDS011;2976;49.764;9.796;2023-02-22T14:24:49;8.50;;;6.57;;
5900;SDS011;2976;49.764;9.796;2023-02-22T14:27:15;11.50;;;6.90;;
5900;SDS011;2976;49.764;9.796;2023-02-22T14:29:51;10.20;;;7.50;;
5900;SDS011;2976;49.764;9.796;2023-02-22T14:32:19;14.20;;;8.30;;
5900;SDS011;2976;49.764;9.796;2023-02-22T14:34:57;15.40;;;7.03;;
5900;SDS011;2976;49.764;9.796;2023-02-22T14:37:28;12.90;;;8.57;;
5900;SDS011;2976;49.764;9.796;2023-02-22T14:42:50;11.13;;;9.07;;
5900;SDS011;2976;49.764;9.796;2023-02-22T14:45:53;11.57;;;8.57;;
5900;SDS011;2976;49.764;9.796;2023-02-22T14:48:26;11.00;;;8.07;;
5900;SDS011;2976;49.764;9.796;2023-02-22T14:51:18;9.60;;;8.07;;
5900;SDS011;2976;49.764;9.796;2023-02-22T14:53:50;10.90;;;8.53;;
5900;SDS011;2976;49.764;9.796;2023-02-22T14:56:21;11.97;;;8.20;;
5900;SDS011;2976;49.764;9.796;2023-02-22T14:58:57;11.90;;;8.60;;
5900;SDS011;2976;49.764;9.796;2023-02-22T15:01:40;15.80;;;9.00;;
5900;SDS011;2976;49.764;9.796;2023-02-22T15:04:15;11.07;;;7.67;;
5900;SDS011;2976;49.764;9.796;2023-02-22T15:06:42;11.97;;;8.73;;
5900;SDS011;2976;49.764;9.796;2023-02-22T15:09:12;17.23;;;9.13;;
5900;SDS011;2976;49.764;9.796;2023-02-22T15:14:26;13.83;;;8.57;;
5900;SDS011;2976;49.764;9.796;2023-02-22T15:16:53;12.40;;;8.87;;
5900;SDS011;2976;49.764;9.796;2023-02-22T15:19:23;13.17;;;8.50;;
5900;SDS011;2976;49.764;9.796;2023-02-22T15:21:52;11.90;;;8.77;;
5900;SDS011;2976;49.764;9.796;2023-02-22T15:24:21;13.80;;;9.10;;
5900;SDS011;2976;49.764;9.796;2023-02-22T15:27:04;11.10;;;8.20;;
5900;SDS011;2976;49.764;9.796;2023-02-22T15:29:35;12.73;;;9.07;;
5900;SDS011;2976;49.764;9.796;2023-02-22T15:32:17;10.97;;;8.37;;
5900;SDS011;2976;49.764;9.796;2023-02-22T15:34:42;12.77;;;9.40;;
5900;SDS011;2976;49.764;9.796;2023-02-22T15:37:13;10.10;;;7.93;;
5900;SDS011;2976;49.764;9.796;2023-02-22T15:39:48;12.83;;;8.10;;
5900;SDS011;2976;49.764;9.796;2023-02-22T15:42:23;18.30;;;8.83;;
5900;SDS011;2976;49.764;9.796;2023-02-22T15:44:50;16.10;;;7.60;;
5900;SDS011;2976;49.764;9.796;2023-02-22T15:47:19;10.73;;;8.03;;
5900;SDS011;2976;49.764;9.796;2023-02-22T15:49:46;12.53;;;7.70;;
5900;SDS011;2976;49.764;9.796;2023-02-22T15:52:40;11.13;;;7.73;;
5900;SDS011;2976;49.764;9.796;2023-02-22T15:55:14;9.07;;;7.70;;
5900;SDS011;2976;49.764;9.796;2023-02-22T15:57:41;11.67;;;8.73;;
5900;SDS011;2976;49.764;9.796;2023-02-22T16:00:16;10.67;;;8.17;;
5900;SDS011;2976;49.764;9.796;2023-02-22T16:03:03;11.97;;;8.30;;
5900;SDS011;2976;49.764;9.796;2023-02-22T16:05:36;10.37;;;7.80;;
5900;SDS011;2976;49.764;9.796;2023-02-22T16:08:24;13.40;;;8.73;;
5900;SDS011;2976;49.764;9.796;2023-02-22T16:11:02;10.23;;;8.67;;
5900;SDS011;2976;49.764;9.796;2023-02-22T16:13:33;10.53;;;8.43;;
5900;SDS011;2976;49.764;9.796;2023-02-22T16:16:03;11.30;;;8.27;;
5900;SDS011;2976;49.764;9.796;2023-02-22T16:18:45;14.30;;;8.20;;
5900;SDS011;2976;49.764;9.796;2023-02-22T16:21:12;11.90;;;8.10;;
5900;SDS011;2976;49.764;9.796;2023-02-22T16:28:48;9.20;;;8.20;;
5900;SDS011;2976;49.764;9.796;2023-02-22T16:31:23;10.30;;;8.00;;
5900;SDS011;2976;49.764;9.796;2023-02-22T16:33:52;9.33;;;7.10;;
5900;SDS011;2976;49.764;9.796;2023-02-22T16:36:18;11.30;;;7.70;;
5900;SDS011;2976;49.764;9.796;2023-02-22T16:38:47;11.90;;;8.33;;
5900;SDS011;2976;49.764;9.796;2023-02-22T16:41:15;9.83;;;8.00;;
5900;SDS011;2976;49.764;9.796;2023-02-22T16:43:47;10.50;;;7.17;;
5900;SDS011;2976;49.764;9.796;2023-02-22T16:46:15;10.80;;;8.93;;
5900;SDS011;2976;49.764;9.796;2023-02-22T16:48:42;16.17;;;9.67;;
5900;SDS011;2976;49.764;9.796;2023-02-22T16:51:15;14.83;;;8.20;;
5900;SDS011;2976;49.764;9.796;2023-02-22T16:53:44;16.00;;;10.23;;
5900;SDS011;2976;49.764;9.796;2023-02-22T16:56:10;16.27;;;10.10;;
5900;SDS011;2976;49.764;9.796;2023-02-22T16:58:40;24.37;;;9.17;;
5900;SDS011;2976;49.764;9.796;2023-02-22T17:01:07;16.73;;;9.00;;
5900;SDS011;2976;49.764;9.796;2023-02-22T17:03:33;19.00;;;10.87;;
5900;SDS011;2976;49.764;9.796;2023-02-22T17:05:59;22.03;;;14.60;;
5900;SDS011;2976;49.764;9.796;2023-02-22T17:08:24;22.20;;;14.20;;
5900;SDS011;2976;49.764;9.796;2023-02-22T17:10:50;22.13;;;13.57;;
5900;SDS011;2976;49.764;9.796;2023-02-22T17:13:21;18.10;;;11.80;;
5900;SDS011;2976;49.764;9.796;2023-02-22T17:15:49;17.97;;;12.77;;
5900;SDS011;2976;49.764;9.796;2023-02-22T17:18:15;19.33;;;12.70;;
5900;SDS011;2976;49.764;9.796;2023-02-22T17:20:46;17.93;;;12.33;;
5900;SDS011;2976;49.764;9.796;2023-02-22T17:23:13;17.73;;;12.50;;
5900;SDS011;2976;49.764;9.796;2023-02-22T17:25:40;14.27;;;10.40;;
5900;SDS011;2976;49.764;9.796;2023-02-22T17:28:26;18.03;;;11.87;;
5900;SDS011;2976;49.764;9.796;2023-02-22T17:30:52;20.00;;;12.43;;